07:57
Airports
History
Links
Donate
Help keep this website running!
PayPal
Bitcoin
This page is community maintained. The information is intended for PC simulator navigation or reference.
Always use approved charts for navigation.
PA07
Bilinski
Bilinski (PA07)
Erie, Pennsylvania, United States (16509)
4
Lat/Lng:42° 0' 52.2" N / 80° 7' 12.21" W
42.0145 / -80.120057
Elevation:1080'ft / 329mMSL
ID / ICAO:PA07
Runways:1
Longest:10-28
Grass 547m / 1,795ft
Nearby Weather07:51 GMT 2018-02-25
Nearby weather at KERI, Erie Intl/tom Ridge Field located 5.5 nautical miles from PA07
Altimeter: 29.70
Visibility: 5.0 statute miles
Wind: 20 knots (from 140°)
Temp: 9°c / 48°f
Humidity: 81.5%

METAR: KERI 250751Z AUTO 14020G28KT 5SM -RA FEW050 BKN065 OVC080 09/06 A2970 RMK AO2 PK WND 13028/0750 SLP059 P0008 T00890061

(Powered by phpweather)
Nearby VORs <50NM
Nearby NDBs
Runway 10 / 28
Dimensions:547.2 x 29m 1795' x 95'ft
Surface:Grass
Runway 10 [A]Runway 28 [B]
Heading:092°TH 272°TH
Lat:
Lng:
42° 0' 52.51"N
80° 7' 24.16"W
42° 0' 51.89"N
80° 7' 0.25"W
User Notes and Comments
42° 0' 52.2" N / 80° 7' 12.21" W
Distance To
Airport ID:
Nearby Airports
(R) Thermal G. Ranch 2.6 NM
PA20 E 80°
(R) Waisley 2.6 NM
38PN WSW 247°
(R) Dillen Personal 3.9 NM
PA02 SW 236°
(C) Erie Intl/tom Ridge Field 5.5 NM
KERI ( WX ) NNW 329°
(R) Fairview Evergreen 6.4 NM
PN18 W 277°
4 Carlson 7.7 NM
PN06 S 173°
4 Franklin Center 9.3 NM
96PA SW 225°
VFR Chart
Flight Planning at SkyVector.com